sensor_id;sensor_type;location;lat;lon;timestamp;temperature;humidity
19085;DHT22;9675;51.538;6.728;2023-03-23T00:02:02;13.30;99.90
19085;DHT22;9675;51.538;6.728;2023-03-23T00:04:30;13.30;99.90
19085;DHT22;9675;51.538;6.728;2023-03-23T00:06:58;13.30;99.90
19085;DHT22;9675;51.538;6.728;2023-03-23T00:09:28;13.30;99.90
19085;DHT22;9675;51.538;6.728;2023-03-23T00:12:00;13.30;99.90
19085;DHT22;9675;51.538;6.728;2023-03-23T00:14:31;13.30;99.90
19085;DHT22;9675;51.538;6.728;2023-03-23T00:17:07;13.30;99.90
19085;DHT22;9675;51.538;6.728;2023-03-23T00:19:37;13.30;99.90
19085;DHT22;9675;51.538;6.728;2023-03-23T00:22:13;13.30;99.90
19085;DHT22;9675;51.538;6.728;2023-03-23T00:24:42;13.30;99.90
19085;DHT22;9675;51.538;6.728;2023-03-23T00:27:10;13.30;99.90
19085;DHT22;9675;51.538;6.728;2023-03-23T00:29:40;13.30;99.90
19085;DHT22;9675;51.538;6.728;2023-03-23T00:32:11;13.30;99.90
19085;DHT22;9675;51.538;6.728;2023-03-23T00:34:40;13.30;99.90
19085;DHT22;9675;51.538;6.728;2023-03-23T00:37:08;13.30;99.90
19085;DHT22;9675;51.538;6.728;2023-03-23T00:39:38;13.30;99.90
19085;DHT22;9675;51.538;6.728;2023-03-23T00:42:12;13.30;99.90
19085;DHT22;9675;51.538;6.728;2023-03-23T00:44:40;13.30;99.90
19085;DHT22;9675;51.538;6.728;2023-03-23T00:47:07;13.30;99.90
19085;DHT22;9675;51.538;6.728;2023-03-23T00:49:36;13.30;99.90
19085;DHT22;9675;51.538;6.728;2023-03-23T00:52:05;13.30;99.90
19085;DHT22;9675;51.538;6.728;2023-03-23T00:54:33;13.30;99.90
19085;DHT22;9675;51.538;6.728;2023-03-23T00:57:04;13.30;99.90
19085;DHT22;9675;51.538;6.728;2023-03-23T00:59:32;13.30;99.90
19085;DHT22;9675;51.538;6.728;2023-03-23T01:01:59;13.30;99.90
19085;DHT22;9675;51.538;6.728;2023-03-23T01:04:26;13.30;99.90
19085;DHT22;9675;51.538;6.728;2023-03-23T01:06:57;13.30;99.90
19085;DHT22;9675;51.538;6.728;2023-03-23T01:09:26;13.30;99.90
19085;DHT22;9675;51.538;6.728;2023-03-23T01:11:53;13.20;99.90
19085;DHT22;9675;51.538;6.728;2023-03-23T01:14:23;13.30;99.90
19085;DHT22;9675;51.538;6.728;2023-03-23T01:16:50;13.30;99.90
19085;DHT22;9675;51.538;6.728;2023-03-23T01:19:18;13.30;99.90
19085;DHT22;9675;51.538;6.728;2023-03-23T01:21:45;13.30;99.90
19085;DHT22;9675;51.538;6.728;2023-03-23T01:24:12;13.30;99.90
19085;DHT22;9675;51.538;6.728;2023-03-23T01:26:39;13.30;99.90
19085;DHT22;9675;51.538;6.728;2023-03-23T01:29:06;13.30;99.90
19085;DHT22;9675;51.538;6.728;2023-03-23T01:31:34;13.30;99.90
19085;DHT22;9675;51.538;6.728;2023-03-23T01:34:02;13.30;99.90
19085;DHT22;9675;51.538;6.728;2023-03-23T01:36:30;13.30;99.90
19085;DHT22;9675;51.538;6.728;2023-03-23T01:38:59;13.30;99.90
19085;DHT22;9675;51.538;6.728;2023-03-23T01:41:29;13.30;99.90
19085;DHT22;9675;51.538;6.728;2023-03-23T01:44:00;13.30;99.90
19085;DHT22;9675;51.538;6.728;2023-03-23T01:46:30;13.20;99.90
19085;DHT22;9675;51.538;6.728;2023-03-23T01:49:02;13.30;99.90
19085;DHT22;9675;51.538;6.728;2023-03-23T01:51:35;13.30;99.90
19085;DHT22;9675;51.538;6.728;2023-03-23T01:54:10;13.20;99.90
19085;DHT22;9675;51.538;6.728;2023-03-23T01:56:47;13.30;99.90
19085;DHT22;9675;51.538;6.728;2023-03-23T01:59:17;13.30;99.90
19085;DHT22;9675;51.538;6.728;2023-03-23T02:01:46;13.30;99.90
19085;DHT22;9675;51.538;6.728;2023-03-23T02:04:16;13.30;99.90
19085;DHT22;9675;51.538;6.728;2023-03-23T02:06:44;13.30;99.90
19085;DHT22;9675;51.538;6.728;2023-03-23T02:09:12;13.30;99.90
19085;DHT22;9675;51.538;6.728;2023-03-23T02:11:42;13.30;99.90
19085;DHT22;9675;51.538;6.728;2023-03-23T02:14:10;13.30;99.90
19085;DHT22;9675;51.538;6.728;2023-03-23T02:16:43;13.30;99.90
19085;DHT22;9675;51.538;6.728;2023-03-23T02:26:15;13.30;99.90
19085;DHT22;9675;51.538;6.728;2023-03-23T02:29:07;13.30;99.90
19085;DHT22;9675;51.538;6.728;2023-03-23T02:32:07;13.30;99.90
19085;DHT22;9675;51.538;6.728;2023-03-23T02:34:50;13.30;99.90
19085;DHT22;9675;51.538;6.728;2023-03-23T02:37:22;13.30;99.90
19085;DHT22;9675;51.538;6.728;2023-03-23T02:39:57;13.30;99.90
19085;DHT22;9675;51.538;6.728;2023-03-23T02:42:33;13.30;99.90
19085;DHT22;9675;51.538;6.728;2023-03-23T02:45:05;13.30;99.90
19085;DHT22;9675;51.538;6.728;2023-03-23T02:47:39;13.30;99.90
19085;DHT22;9675;51.538;6.728;2023-03-23T02:50:15;13.30;99.90
19085;DHT22;9675;51.538;6.728;2023-03-23T02:53:02;13.30;99.90
19085;DHT22;9675;51.538;6.728;2023-03-23T02:55:40;13.30;99.90
19085;DHT22;9675;51.538;6.728;2023-03-23T02:58:09;13.30;99.90
19085;DHT22;9675;51.538;6.728;2023-03-23T03:00:38;13.30;99.90
19085;DHT22;9675;51.538;6.728;2023-03-23T03:03:11;13.30;99.90
19085;DHT22;9675;51.538;6.728;2023-03-23T03:05:53;13.30;99.90
19085;DHT22;9675;51.538;6.728;2023-03-23T03:08:36;13.30;99.90
19085;DHT22;9675;51.538;6.728;2023-03-23T03:11:12;13.30;99.90
19085;DHT22;9675;51.538;6.728;2023-03-23T03:13:47;13.30;99.90
19085;DHT22;9675;51.538;6.728;2023-03-23T03:16:24;13.30;99.90
19085;DHT22;9675;51.538;6.728;2023-03-23T03:19:00;13.30;99.90
19085;DHT22;9675;51.538;6.728;2023-03-23T03:21:37;13.30;99.90
19085;DHT22;9675;51.538;6.728;2023-03-23T03:24:09;13.30;99.90
19085;DHT22;9675;51.538;6.728;2023-03-23T03:26:42;13.20;99.90
19085;DHT22;9675;51.538;6.728;2023-03-23T03:29:13;13.20;99.90
19085;DHT22;9675;51.538;6.728;2023-03-23T03:31:44;13.20;99.90
19085;DHT22;9675;51.538;6.728;2023-03-23T03:34:14;13.30;99.90
19085;DHT22;9675;51.538;6.728;2023-03-23T03:36:45;13.30;99.90
19085;DHT22;9675;51.538;6.728;2023-03-23T03:39:16;13.20;99.90
19085;DHT22;9675;51.538;6.728;2023-03-23T03:41:45;13.20;99.90
19085;DHT22;9675;51.538;6.728;2023-03-23T03:44:12;13.20;99.90
19085;DHT22;9675;51.538;6.728;2023-03-23T03:46:40;13.20;99.90
19085;DHT22;9675;51.538;6.728;2023-03-23T03:49:09;13.20;99.90
19085;DHT22;9675;51.538;6.728;2023-03-23T03:51:39;13.30;99.90
19085;DHT22;9675;51.538;6.728;2023-03-23T03:54:08;13.20;99.90
19085;DHT22;9675;51.538;6.728;2023-03-23T03:56:36;13.20;99.90
19085;DHT22;9675;51.538;6.728;2023-03-23T03:59:06;13.20;99.90
19085;DHT22;9675;51.538;6.728;2023-03-23T04:01:35;13.20;99.90
19085;DHT22;9675;51.538;6.728;2023-03-23T04:04:04;13.20;99.90
19085;DHT22;9675;51.538;6.728;2023-03-23T04:06:32;13.20;99.90
19085;DHT22;9675;51.538;6.728;2023-03-23T04:09:02;13.20;99.90
19085;DHT22;9675;51.538;6.728;2023-03-23T04:11:33;13.20;99.90
19085;DHT22;9675;51.538;6.728;2023-03-23T04:14:00;13.20;99.90
19085;DHT22;9675;51.538;6.728;2023-03-23T04:16:28;13.20;99.90
19085;DHT22;9675;51.538;6.728;2023-03-23T04:18:56;13.20;99.90
19085;DHT22;9675;51.538;6.728;2023-03-23T04:21:23;13.20;99.90
19085;DHT22;9675;51.538;6.728;2023-03-23T04:23:54;13.20;99.90
19085;DHT22;9675;51.538;6.728;2023-03-23T04:26:25;13.20;99.90
19085;DHT22;9675;51.538;6.728;2023-03-23T04:28:53;13.20;99.90
19085;DHT22;9675;51.538;6.728;2023-03-23T04:31:20;13.20;99.90
19085;DHT22;9675;51.538;6.728;2023-03-23T04:33:50;13.20;99.90
19085;DHT22;9675;51.538;6.728;2023-03-23T04:36:19;13.20;99.90
19085;DHT22;9675;51.538;6.728;2023-03-23T04:38:48;13.20;99.90
19085;DHT22;9675;51.538;6.728;2023-03-23T04:41:20;13.20;99.90
19085;DHT22;9675;51.538;6.728;2023-03-23T04:43:47;13.20;99.90
19085;DHT22;9675;51.538;6.728;2023-03-23T04:46:19;13.20;99.90
19085;DHT22;9675;51.538;6.728;2023-03-23T04:48:46;13.20;99.90
19085;DHT22;9675;51.538;6.728;2023-03-23T04:51:14;13.20;99.90
19085;DHT22;9675;51.538;6.728;2023-03-23T04:53:42;13.20;99.90
19085;DHT22;9675;51.538;6.728;2023-03-23T04:56:09;13.20;99.90
19085;DHT22;9675;51.538;6.728;2023-03-23T04:58:36;13.20;99.90
19085;DHT22;9675;51.538;6.728;2023-03-23T05:01:05;13.20;99.90
19085;DHT22;9675;51.538;6.728;2023-03-23T05:03:33;13.20;99.90
19085;DHT22;9675;51.538;6.728;2023-03-23T05:06:01;13.20;99.90
19085;DHT22;9675;51.538;6.728;2023-03-23T05:08:29;13.20;99.90
19085;DHT22;9675;51.538;6.728;2023-03-23T05:10:58;13.20;99.90
19085;DHT22;9675;51.538;6.728;2023-03-23T05:13:27;13.20;99.90
19085;DHT22;9675;51.538;6.728;2023-03-23T05:15:55;13.20;99.90
19085;DHT22;9675;51.538;6.728;2023-03-23T05:18:22;13.20;99.90
19085;DHT22;9675;51.538;6.728;2023-03-23T05:20:52;13.20;99.90
19085;DHT22;9675;51.538;6.728;2023-03-23T05:23:19;13.20;99.90
19085;DHT22;9675;51.538;6.728;2023-03-23T05:25:53;13.20;99.90
19085;DHT22;9675;51.538;6.728;2023-03-23T05:28:20;13.20;99.90
19085;DHT22;9675;51.538;6.728;2023-03-23T05:30:48;13.20;99.90
19085;DHT22;9675;51.538;6.728;2023-03-23T05:33:15;13.20;99.90
19085;DHT22;9675;51.538;6.728;2023-03-23T05:35:42;13.20;99.90
19085;DHT22;9675;51.538;6.728;2023-03-23T05:38:14;13.20;99.90
19085;DHT22;9675;51.538;6.728;2023-03-23T05:40:41;13.20;99.90
19085;DHT22;9675;51.538;6.728;2023-03-23T05:43:09;13.20;99.90
19085;DHT22;9675;51.538;6.728;2023-03-23T05:45:36;13.20;99.90
19085;DHT22;9675;51.538;6.728;2023-03-23T05:48:04;13.20;99.90
19085;DHT22;9675;51.538;6.728;2023-03-23T05:50:31;13.20;99.90
19085;DHT22;9675;51.538;6.728;2023-03-23T05:52:58;13.20;99.90
19085;DHT22;9675;51.538;6.728;2023-03-23T05:55:27;13.20;99.90
19085;DHT22;9675;51.538;6.728;2023-03-23T05:57:54;13.20;99.90
19085;DHT22;9675;51.538;6.728;2023-03-23T06:00:21;13.20;99.90
19085;DHT22;9675;51.538;6.728;2023-03-23T06:02:49;13.20;99.90
19085;DHT22;9675;51.538;6.728;2023-03-23T06:05:17;13.20;99.90
19085;DHT22;9675;51.538;6.728;2023-03-23T06:07:44;13.20;99.90
19085;DHT22;9675;51.538;6.728;2023-03-23T06:10:12;13.20;99.90
19085;DHT22;9675;51.538;6.728;2023-03-23T06:12:40;13.20;99.90
19085;DHT22;9675;51.538;6.728;2023-03-23T06:15:09;13.20;99.90
19085;DHT22;9675;51.538;6.728;2023-03-23T06:17:36;13.20;99.90
19085;DHT22;9675;51.538;6.728;2023-03-23T06:20:05;13.20;99.90
19085;DHT22;9675;51.538;6.728;2023-03-23T06:22:35;13.20;99.90
19085;DHT22;9675;51.538;6.728;2023-03-23T06:25:05;13.20;99.90
19085;DHT22;9675;51.538;6.728;2023-03-23T06:27:33;13.20;99.90
19085;DHT22;9675;51.538;6.728;2023-03-23T06:30:03;13.20;99.90
19085;DHT22;9675;51.538;6.728;2023-03-23T06:32:32;13.20;99.90
19085;DHT22;9675;51.538;6.728;2023-03-23T06:35:00;13.20;99.90
19085;DHT22;9675;51.538;6.728;2023-03-23T06:37:27;13.20;99.90
19085;DHT22;9675;51.538;6.728;2023-03-23T06:39:54;13.20;99.90
19085;DHT22;9675;51.538;6.728;2023-03-23T06:42:22;13.20;99.90
19085;DHT22;9675;51.538;6.728;2023-03-23T06:44:51;13.20;99.90
19085;DHT22;9675;51.538;6.728;2023-03-23T06:47:21;13.20;99.90
19085;DHT22;9675;51.538;6.728;2023-03-23T06:49:49;13.20;99.90
19085;DHT22;9675;51.538;6.728;2023-03-23T06:52:16;13.20;99.90
19085;DHT22;9675;51.538;6.728;2023-03-23T06:54:44;13.30;99.90
19085;DHT22;9675;51.538;6.728;2023-03-23T06:57:11;13.30;99.90
19085;DHT22;9675;51.538;6.728;2023-03-23T06:59:38;13.30;99.90
19085;DHT22;9675;51.538;6.728;2023-03-23T07:02:05;13.30;99.90
19085;DHT22;9675;51.538;6.728;2023-03-23T07:04:34;13.30;99.90
19085;DHT22;9675;51.538;6.728;2023-03-23T07:07:01;13.30;99.90
19085;DHT22;9675;51.538;6.728;2023-03-23T07:09:28;13.30;99.90
19085;DHT22;9675;51.538;6.728;2023-03-23T07:11:55;13.30;99.90
19085;DHT22;9675;51.538;6.728;2023-03-23T07:14:23;13.30;99.90
19085;DHT22;9675;51.538;6.728;2023-03-23T07:16:50;13.30;99.90
19085;DHT22;9675;51.538;6.728;2023-03-23T07:19:17;13.30;99.90
19085;DHT22;9675;51.538;6.728;2023-03-23T07:21:46;13.30;99.90
19085;DHT22;9675;51.538;6.728;2023-03-23T07:24:13;13.30;99.90
19085;DHT22;9675;51.538;6.728;2023-03-23T07:26:40;13.30;99.90
19085;DHT22;9675;51.538;6.728;2023-03-23T07:29:08;13.30;99.90
19085;DHT22;9675;51.538;6.728;2023-03-23T07:31:38;13.30;99.90
19085;DHT22;9675;51.538;6.728;2023-03-23T07:34:08;13.30;99.90
19085;DHT22;9675;51.538;6.728;2023-03-23T07:36:35;13.30;99.90
19085;DHT22;9675;51.538;6.728;2023-03-23T07:39:04;13.30;99.90
19085;DHT22;9675;51.538;6.728;2023-03-23T07:41:35;13.30;99.90
19085;DHT22;9675;51.538;6.728;2023-03-23T07:44:03;13.40;99.90
19085;DHT22;9675;51.538;6.728;2023-03-23T07:46:31;13.30;99.90
19085;DHT22;9675;51.538;6.728;2023-03-23T07:48:58;13.30;99.90
19085;DHT22;9675;51.538;6.728;2023-03-23T07:51:30;13.30;99.90
19085;DHT22;9675;51.538;6.728;2023-03-23T07:53:59;13.30;99.90
19085;DHT22;9675;51.538;6.728;2023-03-23T07:56:29;13.40;99.90
19085;DHT22;9675;51.538;6.728;2023-03-23T07:58:56;13.40;99.90
19085;DHT22;9675;51.538;6.728;2023-03-23T08:01:24;13.40;99.90
19085;DHT22;9675;51.538;6.728;2023-03-23T08:03:51;13.40;99.90
19085;DHT22;9675;51.538;6.728;2023-03-23T08:06:20;13.40;99.90
19085;DHT22;9675;51.538;6.728;2023-03-23T08:08:48;13.40;99.90
19085;DHT22;9675;51.538;6.728;2023-03-23T08:11:16;13.40;99.90
19085;DHT22;9675;51.538;6.728;2023-03-23T08:13:45;13.40;99.90
19085;DHT22;9675;51.538;6.728;2023-03-23T08:16:13;13.40;99.90
19085;DHT22;9675;51.538;6.728;2023-03-23T08:18:40;13.40;99.90
19085;DHT22;9675;51.538;6.728;2023-03-23T08:21:08;13.40;99.90
19085;DHT22;9675;51.538;6.728;2023-03-23T08:23:35;13.40;99.90
19085;DHT22;9675;51.538;6.728;2023-03-23T08:26:03;13.40;99.90
19085;DHT22;9675;51.538;6.728;2023-03-23T08:28:32;13.50;99.90
19085;DHT22;9675;51.538;6.728;2023-03-23T08:31:06;13.40;99.90
19085;DHT22;9675;51.538;6.728;2023-03-23T08:33:34;13.40;99.90
19085;DHT22;9675;51.538;6.728;2023-03-23T08:36:01;13.50;99.90
19085;DHT22;9675;51.538;6.728;2023-03-23T08:38:29;13.50;99.90
19085;DHT22;9675;51.538;6.728;2023-03-23T08:40:57;13.50;99.90
19085;DHT22;9675;51.538;6.728;2023-03-23T08:43:25;13.50;99.90
19085;DHT22;9675;51.538;6.728;2023-03-23T08:45:55;13.50;99.90
19085;DHT22;9675;51.538;6.728;2023-03-23T08:48:25;13.50;99.90
19085;DHT22;9675;51.538;6.728;2023-03-23T08:50:53;13.50;99.90
19085;DHT22;9675;51.538;6.728;2023-03-23T08:53:20;13.50;99.90
19085;DHT22;9675;51.538;6.728;2023-03-23T08:55:47;13.60;99.90
19085;DHT22;9675;51.538;6.728;2023-03-23T08:58:15;13.50;99.90
19085;DHT22;9675;51.538;6.728;2023-03-23T09:00:43;13.60;99.90
19085;DHT22;9675;51.538;6.728;2023-03-23T09:03:14;13.60;99.90
19085;DHT22;9675;51.538;6.728;2023-03-23T09:05:44;13.60;99.90
19085;DHT22;9675;51.538;6.728;2023-03-23T09:08:12;13.60;99.90
19085;DHT22;9675;51.538;6.728;2023-03-23T09:10:39;13.60;99.90
19085;DHT22;9675;51.538;6.728;2023-03-23T09:13:06;13.60;99.90
19085;DHT22;9675;51.538;6.728;2023-03-23T09:15:33;13.60;99.90
19085;DHT22;9675;51.538;6.728;2023-03-23T09:18:00;13.60;99.90
19085;DHT22;9675;51.538;6.728;2023-03-23T09:20:29;13.60;99.90
19085;DHT22;9675;51.538;6.728;2023-03-23T09:22:58;13.50;99.90
19085;DHT22;9675;51.538;6.728;2023-03-23T09:25:27;13.50;99.90
19085;DHT22;9675;51.538;6.728;2023-03-23T09:27:57;13.50;99.90
19085;DHT22;9675;51.538;6.728;2023-03-23T09:30:27;13.40;99.90
19085;DHT22;9675;51.538;6.728;2023-03-23T09:32:55;13.40;99.90
19085;DHT22;9675;51.538;6.728;2023-03-23T09:35:23;13.40;99.90
19085;DHT22;9675;51.538;6.728;2023-03-23T09:37:51;13.30;99.90
19085;DHT22;9675;51.538;6.728;2023-03-23T09:40:22;13.30;99.90
19085;DHT22;9675;51.538;6.728;2023-03-23T09:43:10;13.30;99.90
19085;DHT22;9675;51.538;6.728;2023-03-23T09:45:53;13.30;99.90
19085;DHT22;9675;51.538;6.728;2023-03-23T09:48:44;13.20;99.90
19085;DHT22;9675;51.538;6.728;2023-03-23T09:51:26;13.20;99.90
19085;DHT22;9675;51.538;6.728;2023-03-23T09:54:10;13.20;99.90
19085;DHT22;9675;51.538;6.728;2023-03-23T09:56:45;13.20;99.90
19085;DHT22;9675;51.538;6.728;2023-03-23T09:59:18;13.20;99.90
19085;DHT22;9675;51.538;6.728;2023-03-23T10:01:52;13.20;99.90
19085;DHT22;9675;51.538;6.728;2023-03-23T10:04:29;13.10;99.90
19085;DHT22;9675;51.538;6.728;2023-03-23T10:07:16;13.10;99.90
19085;DHT22;9675;51.538;6.728;2023-03-23T10:09:46;13.10;99.90
19085;DHT22;9675;51.538;6.728;2023-03-23T10:12:29;13.10;99.90
19085;DHT22;9675;51.538;6.728;2023-03-23T10:15:12;13.00;99.90
19085;DHT22;9675;51.538;6.728;2023-03-23T10:17:46;13.00;99.90
19085;DHT22;9675;51.538;6.728;2023-03-23T10:20:35;13.00;99.90
19085;DHT22;9675;51.538;6.728;2023-03-23T10:23:32;13.00;99.90
19085;DHT22;9675;51.538;6.728;2023-03-23T10:26:14;12.90;99.90
19085;DHT22;9675;51.538;6.728;2023-03-23T10:28:54;12.90;99.90
19085;DHT22;9675;51.538;6.728;2023-03-23T10:31:31;12.90;99.90
19085;DHT22;9675;51.538;6.728;2023-03-23T10:34:13;12.90;99.90
19085;DHT22;9675;51.538;6.728;2023-03-23T10:36:55;12.80;99.90
19085;DHT22;9675;51.538;6.728;2023-03-23T10:39:31;12.80;99.90
19085;DHT22;9675;51.538;6.728;2023-03-23T10:42:04;12.80;99.90
19085;DHT22;9675;51.538;6.728;2023-03-23T10:44:34;12.80;99.90
19085;DHT22;9675;51.538;6.728;2023-03-23T10:47:03;12.80;99.90
19085;DHT22;9675;51.538;6.728;2023-03-23T10:49:36;12.70;99.90
19085;DHT22;9675;51.538;6.728;2023-03-23T10:52:17;12.70;99.90
19085;DHT22;9675;51.538;6.728;2023-03-23T10:54:55;12.80;99.90
19085;DHT22;9675;51.538;6.728;2023-03-23T10:57:26;12.70;99.90
19085;DHT22;9675;51.538;6.728;2023-03-23T11:00:02;12.70;99.90
19085;DHT22;9675;51.538;6.728;2023-03-23T11:02:38;12.70;99.90
19085;DHT22;9675;51.538;6.728;2023-03-23T11:05:16;12.70;99.90
19085;DHT22;9675;51.538;6.728;2023-03-23T11:07:50;12.70;99.90
19085;DHT22;9675;51.538;6.728;2023-03-23T11:10:22;12.70;99.90
19085;DHT22;9675;51.538;6.728;2023-03-23T11:12:53;12.70;99.90
19085;DHT22;9675;51.538;6.728;2023-03-23T11:15:29;12.70;99.90
19085;DHT22;9675;51.538;6.728;2023-03-23T11:17:59;12.70;99.90
19085;DHT22;9675;51.538;6.728;2023-03-23T11:20:32;12.70;99.90
19085;DHT22;9675;51.538;6.728;2023-03-23T11:23:09;12.70;99.90
19085;DHT22;9675;51.538;6.728;2023-03-23T11:25:59;12.70;99.90
19085;DHT22;9675;51.538;6.728;2023-03-23T11:28:38;12.70;99.90
19085;DHT22;9675;51.538;6.728;2023-03-23T11:31:13;12.70;99.90
19085;DHT22;9675;51.538;6.728;2023-03-23T11:33:51;12.70;99.90
19085;DHT22;9675;51.538;6.728;2023-03-23T11:36:20;12.70;99.90
19085;DHT22;9675;51.538;6.728;2023-03-23T11:38:54;12.70;99.90
19085;DHT22;9675;51.538;6.728;2023-03-23T11:41:23;12.70;99.90
19085;DHT22;9675;51.538;6.728;2023-03-23T11:43:52;12.60;99.90
19085;DHT22;9675;51.538;6.728;2023-03-23T11:46:30;12.60;99.90
19085;DHT22;9675;51.538;6.728;2023-03-23T11:49:03;12.70;99.90
19085;DHT22;9675;51.538;6.728;2023-03-23T11:51:39;12.70;99.90
19085;DHT22;9675;51.538;6.728;2023-03-23T11:54:14;12.70;99.90
19085;DHT22;9675;51.538;6.728;2023-03-23T11:56:45;12.70;99.90
19085;DHT22;9675;51.538;6.728;2023-03-23T11:59:15;12.70;99.90
19085;DHT22;9675;51.538;6.728;2023-03-23T12:01:53;12.80;99.90
19085;DHT22;9675;51.538;6.728;2023-03-23T12:04:37;12.80;99.90
19085;DHT22;9675;51.538;6.728;2023-03-23T12:07:38;12.90;99.90
19085;DHT22;9675;51.538;6.728;2023-03-23T12:10:23;12.90;99.90
19085;DHT22;9675;51.538;6.728;2023-03-23T12:13:05;12.90;99.90
19085;DHT22;9675;51.538;6.728;2023-03-23T12:15:52;13.00;99.90
19085;DHT22;9675;51.538;6.728;2023-03-23T12:18:34;13.00;99.90
19085;DHT22;9675;51.538;6.728;2023-03-23T12:21:12;13.00;99.90
19085;DHT22;9675;51.538;6.728;2023-03-23T12:23:57;13.10;99.90
19085;DHT22;9675;51.538;6.728;2023-03-23T12:26:31;13.10;99.90
19085;DHT22;9675;51.538;6.728;2023-03-23T12:29:18;13.10;99.90
19085;DHT22;9675;51.538;6.728;2023-03-23T12:32:03;13.20;99.90
19085;DHT22;9675;51.538;6.728;2023-03-23T12:34:50;13.20;99.90
19085;DHT22;9675;51.538;6.728;2023-03-23T12:37:33;13.20;99.90
19085;DHT22;9675;51.538;6.728;2023-03-23T12:40:28;13.20;99.90
19085;DHT22;9675;51.538;6.728;2023-03-23T12:43:06;13.20;99.90
19085;DHT22;9675;51.538;6.728;2023-03-23T12:45:54;13.30;99.90
19085;DHT22;9675;51.538;6.728;2023-03-23T12:48:31;13.30;99.90
19085;DHT22;9675;51.538;6.728;2023-03-23T12:51:09;13.30;99.90
19085;DHT22;9675;51.538;6.728;2023-03-23T12:53:55;13.30;99.90
19085;DHT22;9675;51.538;6.728;2023-03-23T12:56:29;13.30;99.90
19085;DHT22;9675;51.538;6.728;2023-03-23T12:59:06;13.40;99.90
19085;DHT22;9675;51.538;6.728;2023-03-23T13:01:40;13.40;99.90
19085;DHT22;9675;51.538;6.728;2023-03-23T13:04:13;13.40;99.90
19085;DHT22;9675;51.538;6.728;2023-03-23T13:06:45;13.50;99.90
19085;DHT22;9675;51.538;6.728;2023-03-23T13:09:24;13.60;99.90
19085;DHT22;9675;51.538;6.728;2023-03-23T13:11:58;13.60;99.90
19085;DHT22;9675;51.538;6.728;2023-03-23T13:14:37;13.70;99.90
19085;DHT22;9675;51.538;6.728;2023-03-23T13:17:22;13.70;99.90
19085;DHT22;9675;51.538;6.728;2023-03-23T13:20:22;13.80;99.90
19085;DHT22;9675;51.538;6.728;2023-03-23T13:23:09;13.80;99.90
19085;DHT22;9675;51.538;6.728;2023-03-23T13:25:51;14.00;99.90
19085;DHT22;9675;51.538;6.728;2023-03-23T13:28:23;14.10;99.90
19085;DHT22;9675;51.538;6.728;2023-03-23T13:30:58;14.10;99.90
19085;DHT22;9675;51.538;6.728;2023-03-23T13:33:33;14.10;99.90
19085;DHT22;9675;51.538;6.728;2023-03-23T13:36:07;14.20;99.90
19085;DHT22;9675;51.538;6.728;2023-03-23T13:38:38;14.30;99.90
19085;DHT22;9675;51.538;6.728;2023-03-23T13:41:13;14.30;99.90
19085;DHT22;9675;51.538;6.728;2023-03-23T13:43:43;14.40;99.90
19085;DHT22;9675;51.538;6.728;2023-03-23T13:46:24;14.50;99.90
19085;DHT22;9675;51.538;6.728;2023-03-23T13:49:17;14.50;99.90
19085;DHT22;9675;51.538;6.728;2023-03-23T13:52:14;14.60;99.90
19085;DHT22;9675;51.538;6.728;2023-03-23T13:54:46;14.60;99.90
19085;DHT22;9675;51.538;6.728;2023-03-23T13:57:26;14.60;99.90
19085;DHT22;9675;51.538;6.728;2023-03-23T14:00:22;14.60;99.90
19085;DHT22;9675;51.538;6.728;2023-03-23T14:03:02;14.70;99.90
19085;DHT22;9675;51.538;6.728;2023-03-23T14:05:35;14.70;99.90
19085;DHT22;9675;51.538;6.728;2023-03-23T14:08:13;14.80;99.90
19085;DHT22;9675;51.538;6.728;2023-03-23T14:10:55;14.80;99.90
19085;DHT22;9675;51.538;6.728;2023-03-23T14:13:30;14.80;99.90
19085;DHT22;9675;51.538;6.728;2023-03-23T14:16:00;14.80;99.90
19085;DHT22;9675;51.538;6.728;2023-03-23T14:18:34;14.90;99.90
19085;DHT22;9675;51.538;6.728;2023-03-23T14:21:05;14.90;99.90
19085;DHT22;9675;51.538;6.728;2023-03-23T14:23:40;14.90;99.90
19085;DHT22;9675;51.538;6.728;2023-03-23T14:26:12;14.90;99.90
19085;DHT22;9675;51.538;6.728;2023-03-23T14:28:44;14.90;99.90
19085;DHT22;9675;51.538;6.728;2023-03-23T14:31:17;15.00;99.90
19085;DHT22;9675;51.538;6.728;2023-03-23T14:33:48;15.10;99.90
19085;DHT22;9675;51.538;6.728;2023-03-23T14:36:20;15.10;99.90
19085;DHT22;9675;51.538;6.728;2023-03-23T14:38:55;15.10;99.90
19085;DHT22;9675;51.538;6.728;2023-03-23T14:41:30;15.10;99.90
19085;DHT22;9675;51.538;6.728;2023-03-23T14:44:00;15.20;99.90
19085;DHT22;9675;51.538;6.728;2023-03-23T14:46:30;15.20;99.90
19085;DHT22;9675;51.538;6.728;2023-03-23T14:49:00;15.30;99.90
19085;DHT22;9675;51.538;6.728;2023-03-23T14:51:28;15.30;99.90
19085;DHT22;9675;51.538;6.728;2023-03-23T14:53:57;15.30;99.90
19085;DHT22;9675;51.538;6.728;2023-03-23T14:56:34;15.40;99.90
19085;DHT22;9675;51.538;6.728;2023-03-23T14:59:05;15.40;99.90
19085;DHT22;9675;51.538;6.728;2023-03-23T15:01:36;15.40;99.90
19085;DHT22;9675;51.538;6.728;2023-03-23T15:04:08;15.50;99.90
19085;DHT22;9675;51.538;6.728;2023-03-23T15:06:41;15.50;99.90
19085;DHT22;9675;51.538;6.728;2023-03-23T15:09:13;15.50;99.90
19085;DHT22;9675;51.538;6.728;2023-03-23T15:11:52;15.50;99.90
19085;DHT22;9675;51.538;6.728;2023-03-23T15:14:24;15.60;99.90
19085;DHT22;9675;51.538;6.728;2023-03-23T15:16:56;15.60;99.90
19085;DHT22;9675;51.538;6.728;2023-03-23T15:19:31;15.60;99.90
19085;DHT22;9675;51.538;6.728;2023-03-23T15:22:05;15.70;99.90
19085;DHT22;9675;51.538;6.728;2023-03-23T15:24:40;15.70;99.90
19085;DHT22;9675;51.538;6.728;2023-03-23T15:27:16;15.70;99.90
19085;DHT22;9675;51.538;6.728;2023-03-23T15:29:51;15.70;99.90
19085;DHT22;9675;51.538;6.728;2023-03-23T15:32:24;15.70;99.90
19085;DHT22;9675;51.538;6.728;2023-03-23T15:34:54;15.80;99.90
19085;DHT22;9675;51.538;6.728;2023-03-23T15:37:26;15.70;99.90
19085;DHT22;9675;51.538;6.728;2023-03-23T15:39:55;15.80;99.90
19085;DHT22;9675;51.538;6.728;2023-03-23T15:42:26;15.80;99.90
19085;DHT22;9675;51.538;6.728;2023-03-23T15:44:57;15.80;99.90
19085;DHT22;9675;51.538;6.728;2023-03-23T15:47:37;15.90;99.90
19085;DHT22;9675;51.538;6.728;2023-03-23T15:50:14;15.90;99.90
19085;DHT22;9675;51.538;6.728;2023-03-23T15:52:42;15.90;99.90
19085;DHT22;9675;51.538;6.728;2023-03-23T15:55:21;15.90;99.90
19085;DHT22;9675;51.538;6.728;2023-03-23T15:57:54;15.90;99.90
19085;DHT22;9675;51.538;6.728;2023-03-23T16:00:24;15.90;99.90
19085;DHT22;9675;51.538;6.728;2023-03-23T16:02:55;15.90;99.90
19085;DHT22;9675;51.538;6.728;2023-03-23T16:05:26;15.90;99.90
19085;DHT22;9675;51.538;6.728;2023-03-23T16:07:53;15.90;99.90
19085;DHT22;9675;51.538;6.728;2023-03-23T16:10:22;15.90;99.90
19085;DHT22;9675;51.538;6.728;2023-03-23T16:12:50;15.90;99.90
19085;DHT22;9675;51.538;6.728;2023-03-23T16:15:19;15.90;99.90
19085;DHT22;9675;51.538;6.728;2023-03-23T16:17:47;15.90;99.90
19085;DHT22;9675;51.538;6.728;2023-03-23T16:20:16;16.00;99.90
19085;DHT22;9675;51.538;6.728;2023-03-23T16:22:45;15.90;99.90
19085;DHT22;9675;51.538;6.728;2023-03-23T16:25:13;15.90;99.90